sensor_id;sensor_type;location;lat;lon;timestamp;pressure;altitude;pressure_sealevel;temperature;humidity
72370;BME280;60343;-32.030;115.880;2023-03-03T00:00:34;101215.63;;;29.33;47.27
72370;BME280;60343;-32.030;115.880;2023-03-03T00:03:09;101203.69;;;29.42;46.87
72370;BME280;60343;-32.030;115.880;2023-03-03T00:05:45;101213.09;;;29.41;47.47
72370;BME280;60343;-32.030;115.880;2023-03-03T00:08:20;101206.44;;;29.76;45.90
72370;BME280;60343;-32.030;115.880;2023-03-03T00:11:01;101207.81;;;30.08;44.56
72370;BME280;60343;-32.030;115.880;2023-03-03T00:13:43;101203.34;;;30.36;44.06
72370;BME280;60343;-32.030;115.880;2023-03-03T00:16:22;101209.69;;;30.60;44.08
72370;BME280;60343;-32.030;115.880;2023-03-03T00:18:57;101206.78;;;30.70;43.41
72370;BME280;60343;-32.030;115.880;2023-03-03T00:21:39;101204.03;;;30.89;44.30
72370;BME280;60343;-32.030;115.880;2023-03-03T00:24:21;101214.16;;;30.98;45.65
72370;BME280;60343;-32.030;115.880;2023-03-03T00:27:15;101210.63;;;30.93;46.05
72370;BME280;60343;-32.030;115.880;2023-03-03T00:29:53;101214.50;;;31.29;45.39
72370;BME280;60343;-32.030;115.880;2023-03-03T00:32:35;101217.66;;;31.41;45.61
72370;BME280;60343;-32.030;115.880;2023-03-03T00:35:24;101211.34;;;31.54;44.28
72370;BME280;60343;-32.030;115.880;2023-03-03T00:38:09;101213.88;;;31.70;43.39
72370;BME280;60343;-32.030;115.880;2023-03-03T00:40:44;101207.94;;;31.76;43.36
72370;BME280;60343;-32.030;115.880;2023-03-03T00:43:35;101214.31;;;31.77;43.38
72370;BME280;60343;-32.030;115.880;2023-03-03T00:46:10;101215.69;;;32.07;42.99
72370;BME280;60343;-32.030;115.880;2023-03-03T00:48:50;101219.53;;;32.24;41.43
72370;BME280;60343;-32.030;115.880;2023-03-03T00:51:29;101219.03;;;32.22;41.94
72370;BME280;60343;-32.030;115.880;2023-03-03T00:54:04;101223.75;;;32.22;41.86
72370;BME280;60343;-32.030;115.880;2023-03-03T00:56:47;101221.16;;;32.25;42.18
72370;BME280;60343;-32.030;115.880;2023-03-03T00:59:40;101222.63;;;32.36;41.13
72370;BME280;60343;-32.030;115.880;2023-03-03T01:02:14;101218.28;;;32.30;41.61
72370;BME280;60343;-32.030;115.880;2023-03-03T01:04:51;101212.88;;;32.66;41.51
72370;BME280;60343;-32.030;115.880;2023-03-03T01:07:26;101219.66;;;32.74;40.51
72370;BME280;60343;-32.030;115.880;2023-03-03T01:10:00;101223.59;;;32.95;41.22
72370;BME280;60343;-32.030;115.880;2023-03-03T01:12:35;101231.84;;;32.87;41.99
72370;BME280;60343;-32.030;115.880;2023-03-03T01:15:16;101231.44;;;33.15;40.80
72370;BME280;60343;-32.030;115.880;2023-03-03T01:17:50;101225.00;;;33.06;40.82
72370;BME280;60343;-32.030;115.880;2023-03-03T01:20:25;101230.97;;;33.13;41.12
72370;BME280;60343;-32.030;115.880;2023-03-03T01:22:59;101229.81;;;33.14;41.72
72370;BME280;60343;-32.030;115.880;2023-03-03T01:25:34;101238.56;;;33.22;41.97
72370;BME280;60343;-32.030;115.880;2023-03-03T01:28:09;101244.94;;;33.22;41.71
72370;BME280;60343;-32.030;115.880;2023-03-03T01:30:49;101242.84;;;33.28;41.44
72370;BME280;60343;-32.030;115.880;2023-03-03T01:33:24;101247.41;;;33.24;41.79
72370;BME280;60343;-32.030;115.880;2023-03-03T01:35:58;101250.41;;;33.36;41.25
72370;BME280;60343;-32.030;115.880;2023-03-03T01:38:35;101240.53;;;33.43;41.18
72370;BME280;60343;-32.030;115.880;2023-03-03T01:41:09;101240.59;;;33.52;41.06
72370;BME280;60343;-32.030;115.880;2023-03-03T01:43:45;101235.41;;;33.81;40.89
72370;BME280;60343;-32.030;115.880;2023-03-03T01:46:44;101239.28;;;33.94;40.29
72370;BME280;60343;-32.030;115.880;2023-03-03T01:49:22;101240.16;;;34.12;40.76
72370;BME280;60343;-32.030;115.880;2023-03-03T01:52:02;101244.72;;;34.08;40.06
72370;BME280;60343;-32.030;115.880;2023-03-03T01:54:39;101238.88;;;33.87;40.35
72370;BME280;60343;-32.030;115.880;2023-03-03T01:57:17;101249.38;;;33.90;39.81
72370;BME280;60343;-32.030;115.880;2023-03-03T01:59:57;101244.53;;;33.73;39.66
72370;BME280;60343;-32.030;115.880;2023-03-03T02:02:40;101246.41;;;33.86;39.42
72370;BME280;60343;-32.030;115.880;2023-03-03T02:05:16;101249.69;;;33.88;39.36
72370;BME280;60343;-32.030;115.880;2023-03-03T02:07:51;101239.13;;;33.99;38.77
72370;BME280;60343;-32.030;115.880;2023-03-03T02:10:26;101245.81;;;33.98;37.84
72370;BME280;60343;-32.030;115.880;2023-03-03T02:13:02;101247.34;;;34.04;37.97
72370;BME280;60343;-32.030;115.880;2023-03-03T02:15:36;101246.38;;;34.09;37.90
72370;BME280;60343;-32.030;115.880;2023-03-03T02:18:19;101246.41;;;34.17;37.65
72370;BME280;60343;-32.030;115.880;2023-03-03T02:20:58;101253.91;;;34.17;36.39
72370;BME280;60343;-32.030;115.880;2023-03-03T02:23:39;101243.22;;;34.32;35.75
72370;BME280;60343;-32.030;115.880;2023-03-03T02:26:23;101239.34;;;34.42;36.27
72370;BME280;60343;-32.030;115.880;2023-03-03T02:28:58;101247.81;;;34.37;35.80
72370;BME280;60343;-32.030;115.880;2023-03-03T02:31:34;101248.38;;;34.56;35.99
72370;BME280;60343;-32.030;115.880;2023-03-03T02:34:09;101241.00;;;34.52;34.53
72370;BME280;60343;-32.030;115.880;2023-03-03T02:36:44;101237.69;;;34.80;34.59
72370;BME280;60343;-32.030;115.880;2023-03-03T02:39:20;101240.47;;;34.89;34.34
72370;BME280;60343;-32.030;115.880;2023-03-03T02:42:06;101236.53;;;34.81;33.92
72370;BME280;60343;-32.030;115.880;2023-03-03T02:44:41;101233.28;;;34.97;34.34
72370;BME280;60343;-32.030;115.880;2023-03-03T02:47:16;101225.78;;;35.06;34.98
72370;BME280;60343;-32.030;115.880;2023-03-03T02:49:50;101234.94;;;35.15;35.04
72370;BME280;60343;-32.030;115.880;2023-03-03T02:52:25;101229.19;;;35.11;33.87
72370;BME280;60343;-32.030;115.880;2023-03-03T02:54:59;101218.56;;;35.22;33.55
72370;BME280;60343;-32.030;115.880;2023-03-03T02:57:39;101222.84;;;35.28;33.45
72370;BME280;60343;-32.030;115.880;2023-03-03T03:00:14;101216.09;;;35.03;32.84
72370;BME280;60343;-32.030;115.880;2023-03-03T03:02:48;101219.25;;;35.19;33.32
72370;BME280;60343;-32.030;115.880;2023-03-03T03:05:23;101215.63;;;35.44;32.54
72370;BME280;60343;-32.030;115.880;2023-03-03T03:07:57;101217.56;;;35.61;33.38
72370;BME280;60343;-32.030;115.880;2023-03-03T03:10:32;101209.88;;;35.49;33.47
72370;BME280;60343;-32.030;115.880;2023-03-03T03:13:12;101199.75;;;35.19;33.57
72370;BME280;60343;-32.030;115.880;2023-03-03T03:15:47;101200.41;;;35.24;33.84
72370;BME280;60343;-32.030;115.880;2023-03-03T03:18:21;101198.59;;;35.28;34.15
72370;BME280;60343;-32.030;115.880;2023-03-03T03:20:56;101196.59;;;35.46;33.83
72370;BME280;60343;-32.030;115.880;2023-03-03T03:23:30;101193.63;;;35.51;34.31
72370;BME280;60343;-32.030;115.880;2023-03-03T03:26:05;101183.16;;;35.48;33.74
72370;BME280;60343;-32.030;115.880;2023-03-03T03:28:45;101179.38;;;35.53;32.39
72370;BME280;60343;-32.030;115.880;2023-03-03T03:31:21;101180.84;;;35.59;32.32
72370;BME280;60343;-32.030;115.880;2023-03-03T03:33:55;101179.34;;;35.61;32.14
72370;BME280;60343;-32.030;115.880;2023-03-03T03:36:29;101179.03;;;35.63;31.70
72370;BME280;60343;-32.030;115.880;2023-03-03T03:39:04;101180.22;;;35.45;32.65
72370;BME280;60343;-32.030;115.880;2023-03-03T03:41:39;101179.59;;;35.22;33.14
72370;BME280;60343;-32.030;115.880;2023-03-03T03:44:19;101177.13;;;35.12;33.65
72370;BME280;60343;-32.030;115.880;2023-03-03T03:46:53;101175.50;;;35.28;33.67
72370;BME280;60343;-32.030;115.880;2023-03-03T03:49:27;101168.13;;;35.23;34.11
72370;BME280;60343;-32.030;115.880;2023-03-03T03:52:02;101175.34;;;35.24;33.40
72370;BME280;60343;-32.030;115.880;2023-03-03T03:54:37;101169.25;;;35.48;33.79
72370;BME280;60343;-32.030;115.880;2023-03-03T03:57:11;101168.75;;;35.46;33.60
72370;BME280;60343;-32.030;115.880;2023-03-03T03:59:51;101174.97;;;35.43;33.90
72370;BME280;60343;-32.030;115.880;2023-03-03T04:02:26;101172.34;;;35.55;34.40
72370;BME280;60343;-32.030;115.880;2023-03-03T04:05:01;101166.78;;;35.55;33.49
72370;BME280;60343;-32.030;115.880;2023-03-03T04:10:45;101174.09;;;35.77;32.38
72370;BME280;60343;-32.030;115.880;2023-03-03T04:13:20;101170.72;;;35.54;32.73
72370;BME280;60343;-32.030;115.880;2023-03-03T04:16:01;101163.16;;;35.55;32.26
72370;BME280;60343;-32.030;115.880;2023-03-03T04:18:35;101167.16;;;35.92;31.80
72370;BME280;60343;-32.030;115.880;2023-03-03T04:21:12;101169.19;;;35.74;32.09
72370;BME280;60343;-32.030;115.880;2023-03-03T04:23:47;101166.09;;;35.76;31.02
72370;BME280;60343;-32.030;115.880;2023-03-03T04:26:22;101162.38;;;35.46;32.03
72370;BME280;60343;-32.030;115.880;2023-03-03T04:28:57;101160.25;;;35.43;31.50
72370;BME280;60343;-32.030;115.880;2023-03-03T04:31:37;101162.84;;;35.48;30.73
72370;BME280;60343;-32.030;115.880;2023-03-03T04:34:12;101158.56;;;35.59;30.64
72370;BME280;60343;-32.030;115.880;2023-03-03T04:36:46;101159.97;;;35.82;30.13
72370;BME280;60343;-32.030;115.880;2023-03-03T04:39:21;101158.75;;;35.71;29.71
72370;BME280;60343;-32.030;115.880;2023-03-03T04:41:55;101155.09;;;35.62;30.94
72370;BME280;60343;-32.030;115.880;2023-03-03T04:44:30;101151.31;;;35.84;30.88
72370;BME280;60343;-32.030;115.880;2023-03-03T04:47:13;101156.09;;;35.57;30.68
72370;BME280;60343;-32.030;115.880;2023-03-03T04:49:56;101153.03;;;35.50;31.53
72370;BME280;60343;-32.030;115.880;2023-03-03T04:52:30;101150.28;;;35.24;31.32
72370;BME280;60343;-32.030;115.880;2023-03-03T04:55:06;101141.75;;;35.12;31.41
72370;BME280;60343;-32.030;115.880;2023-03-03T04:57:40;101135.38;;;34.95;31.13
72370;BME280;60343;-32.030;115.880;2023-03-03T05:00:15;101138.31;;;34.81;31.86
72370;BME280;60343;-32.030;115.880;2023-03-03T05:02:55;101129.81;;;34.95;32.96
72370;BME280;60343;-32.030;115.880;2023-03-03T05:05:30;101122.13;;;35.26;32.53
72370;BME280;60343;-32.030;115.880;2023-03-03T05:08:05;101123.88;;;35.39;31.63
72370;BME280;60343;-32.030;115.880;2023-03-03T05:10:39;101123.75;;;35.10;31.79
72370;BME280;60343;-32.030;115.880;2023-03-03T05:13:14;101117.72;;;34.73;32.27
72370;BME280;60343;-32.030;115.880;2023-03-03T05:15:53;101122.75;;;34.45;33.10
72370;BME280;60343;-32.030;115.880;2023-03-03T05:18:33;101121.59;;;34.55;32.97
72370;BME280;60343;-32.030;115.880;2023-03-03T05:21:08;101117.03;;;34.59;32.92
72370;BME280;60343;-32.030;115.880;2023-03-03T05:23:42;101114.56;;;34.58;31.80
72370;BME280;60343;-32.030;115.880;2023-03-03T05:26:17;101106.84;;;34.37;33.40
72370;BME280;60343;-32.030;115.880;2023-03-03T05:28:51;101112.41;;;34.29;33.30
72370;BME280;60343;-32.030;115.880;2023-03-03T05:31:26;101110.19;;;34.09;33.66
72370;BME280;60343;-32.030;115.880;2023-03-03T05:34:07;101112.31;;;34.12;34.05
72370;BME280;60343;-32.030;115.880;2023-03-03T05:36:41;101117.34;;;34.49;34.25
72370;BME280;60343;-32.030;115.880;2023-03-03T05:39:16;101116.50;;;34.49;34.31
72370;BME280;60343;-32.030;115.880;2023-03-03T05:41:50;101117.19;;;34.71;34.19
72370;BME280;60343;-32.030;115.880;2023-03-03T05:44:26;101120.84;;;34.80;34.12
72370;BME280;60343;-32.030;115.880;2023-03-03T05:47:01;101114.41;;;34.71;34.12
72370;BME280;60343;-32.030;115.880;2023-03-03T05:49:42;101100.97;;;34.56;35.62
72370;BME280;60343;-32.030;115.880;2023-03-03T05:52:16;101106.44;;;34.70;34.57
72370;BME280;60343;-32.030;115.880;2023-03-03T05:54:51;101097.66;;;34.20;34.88
72370;BME280;60343;-32.030;115.880;2023-03-03T05:57:25;101100.44;;;34.20;34.59
72370;BME280;60343;-32.030;115.880;2023-03-03T06:00:00;101098.50;;;34.20;33.96
72370;BME280;60343;-32.030;115.880;2023-03-03T06:02:35;101096.28;;;34.09;36.21
72370;BME280;60343;-32.030;115.880;2023-03-03T06:05:16;101097.00;;;34.31;36.13
72370;BME280;60343;-32.030;115.880;2023-03-03T06:07:51;101100.09;;;34.21;36.67
72370;BME280;60343;-32.030;115.880;2023-03-03T06:10:26;101092.19;;;34.06;35.98
72370;BME280;60343;-32.030;115.880;2023-03-03T06:13:01;101094.78;;;34.59;35.81
72370;BME280;60343;-32.030;115.880;2023-03-03T06:15:36;101104.31;;;34.75;35.09
72370;BME280;60343;-32.030;115.880;2023-03-03T06:18:10;101098.41;;;34.85;34.47
72370;BME280;60343;-32.030;115.880;2023-03-03T06:20:51;101097.22;;;35.04;34.06
72370;BME280;60343;-32.030;115.880;2023-03-03T06:23:25;101094.28;;;35.00;34.18
72370;BME280;60343;-32.030;115.880;2023-03-03T06:26:00;101101.66;;;35.05;33.70
72370;BME280;60343;-32.030;115.880;2023-03-03T06:28:35;101104.41;;;35.22;33.71
72370;BME280;60343;-32.030;115.880;2023-03-03T06:31:09;101096.59;;;34.90;35.44
72370;BME280;60343;-32.030;115.880;2023-03-03T06:33:43;101093.09;;;34.24;36.65
72370;BME280;60343;-32.030;115.880;2023-03-03T06:36:24;101092.16;;;33.89;37.46
72370;BME280;60343;-32.030;115.880;2023-03-03T06:38:58;101088.88;;;33.95;37.82
72370;BME280;60343;-32.030;115.880;2023-03-03T06:41:33;101085.59;;;34.50;36.30
72370;BME280;60343;-32.030;115.880;2023-03-03T06:44:08;101084.13;;;34.53;35.62
72370;BME280;60343;-32.030;115.880;2023-03-03T06:46:42;101083.78;;;34.37;35.99
72370;BME280;60343;-32.030;115.880;2023-03-03T06:49:17;101084.28;;;34.39;36.25
72370;BME280;60343;-32.030;115.880;2023-03-03T06:52:00;101083.88;;;34.15;36.49
72370;BME280;60343;-32.030;115.880;2023-03-03T06:54:35;101090.06;;;34.12;36.92
72370;BME280;60343;-32.030;115.880;2023-03-03T06:57:16;101084.59;;;34.20;36.67
72370;BME280;60343;-32.030;115.880;2023-03-03T06:59:55;101086.88;;;34.18;36.62
72370;BME280;60343;-32.030;115.880;2023-03-03T07:02:30;101082.59;;;34.21;36.75
72370;BME280;60343;-32.030;115.880;2023-03-03T07:05:09;101067.81;;;33.94;37.37
72370;BME280;60343;-32.030;115.880;2023-03-03T07:07:51;101069.28;;;33.61;38.41
72370;BME280;60343;-32.030;115.880;2023-03-03T07:10:27;101067.84;;;33.63;39.30
72370;BME280;60343;-32.030;115.880;2023-03-03T07:13:18;101066.75;;;33.73;39.08
72370;BME280;60343;-32.030;115.880;2023-03-03T07:15:54;101067.19;;;33.67;39.35
72370;BME280;60343;-32.030;115.880;2023-03-03T07:18:38;101069.16;;;33.66;39.19
72370;BME280;60343;-32.030;115.880;2023-03-03T07:21:17;101072.72;;;33.58;39.29
72370;BME280;60343;-32.030;115.880;2023-03-03T07:23:58;101064.38;;;33.58;39.87
72370;BME280;60343;-32.030;115.880;2023-03-03T07:26:33;101065.81;;;33.55;38.84
72370;BME280;60343;-32.030;115.880;2023-03-03T07:29:18;101063.19;;;33.81;38.27
72370;BME280;60343;-32.030;115.880;2023-03-03T07:31:56;101065.31;;;33.45;39.44
72370;BME280;60343;-32.030;115.880;2023-03-03T07:34:36;101075.53;;;33.36;39.66
72370;BME280;60343;-32.030;115.880;2023-03-03T07:37:16;101068.47;;;33.60;39.73
72370;BME280;60343;-32.030;115.880;2023-03-03T07:39:57;101067.03;;;33.63;39.69
72370;BME280;60343;-32.030;115.880;2023-03-03T07:42:38;101070.75;;;33.05;40.94
72370;BME280;60343;-32.030;115.880;2023-03-03T07:45:26;101077.31;;;32.87;41.79
72370;BME280;60343;-32.030;115.880;2023-03-03T07:48:05;101076.44;;;32.42;42.79
72370;BME280;60343;-32.030;115.880;2023-03-03T07:50:43;101076.47;;;32.01;43.87
72370;BME280;60343;-32.030;115.880;2023-03-03T07:53:23;101084.91;;;31.50;44.96
72370;BME280;60343;-32.030;115.880;2023-03-03T07:56:16;101086.91;;;31.17;46.26
72370;BME280;60343;-32.030;115.880;2023-03-03T07:58:54;101091.44;;;30.76;47.07
72370;BME280;60343;-32.030;115.880;2023-03-03T08:01:37;101098.44;;;30.49;48.15
72370;BME280;60343;-32.030;115.880;2023-03-03T08:04:21;101106.34;;;30.37;48.57
72370;BME280;60343;-32.030;115.880;2023-03-03T08:06:57;101100.13;;;30.26;48.55
72370;BME280;60343;-32.030;115.880;2023-03-03T08:09:43;101096.38;;;30.17;49.16
72370;BME280;60343;-32.030;115.880;2023-03-03T08:12:43;101099.47;;;30.35;48.53
72370;BME280;60343;-32.030;115.880;2023-03-03T08:15:22;101105.19;;;30.38;48.52
72370;BME280;60343;-32.030;115.880;2023-03-03T08:18:01;101098.91;;;30.56;47.88
72370;BME280;60343;-32.030;115.880;2023-03-03T08:20:42;101100.19;;;30.21;48.69
72370;BME280;60343;-32.030;115.880;2023-03-03T08:23:18;101096.53;;;29.78;49.47
72370;BME280;60343;-32.030;115.880;2023-03-03T08:25:53;101095.19;;;29.52;50.61
72370;BME280;60343;-32.030;115.880;2023-03-03T08:28:33;101094.41;;;29.47;50.88
72370;BME280;60343;-32.030;115.880;2023-03-03T08:31:07;101091.34;;;29.48;51.13
72370;BME280;60343;-32.030;115.880;2023-03-03T08:33:44;101100.25;;;29.40;50.45
72370;BME280;60343;-32.030;115.880;2023-03-03T08:36:19;101098.25;;;29.17;50.83
72370;BME280;60343;-32.030;115.880;2023-03-03T08:38:53;101100.69;;;29.18;51.29
72370;BME280;60343;-32.030;115.880;2023-03-03T08:41:28;101106.41;;;28.93;52.24
72370;BME280;60343;-32.030;115.880;2023-03-03T08:44:08;101097.97;;;28.79;52.02
72370;BME280;60343;-32.030;115.880;2023-03-03T08:46:43;101106.84;;;28.76;52.00
72370;BME280;60343;-32.030;115.880;2023-03-03T08:49:18;101119.47;;;28.77;51.66
72370;BME280;60343;-32.030;115.880;2023-03-03T08:51:52;101115.09;;;28.71;52.11
72370;BME280;60343;-32.030;115.880;2023-03-03T08:54:28;101114.00;;;28.67;52.50
72370;BME280;60343;-32.030;115.880;2023-03-03T08:57:03;101114.59;;;28.64;52.51
72370;BME280;60343;-32.030;115.880;2023-03-03T08:59:43;101113.56;;;28.50;53.14
72370;BME280;60343;-32.030;115.880;2023-03-03T09:02:17;101123.78;;;28.44;53.38
72370;BME280;60343;-32.030;115.880;2023-03-03T09:04:52;101115.50;;;28.49;53.23
72370;BME280;60343;-32.030;115.880;2023-03-03T09:07:26;101115.47;;;28.54;53.27
72370;BME280;60343;-32.030;115.880;2023-03-03T09:10:01;101117.09;;;28.61;52.90
72370;BME280;60343;-32.030;115.880;2023-03-03T09:12:37;101120.44;;;28.52;52.46
72370;BME280;60343;-32.030;115.880;2023-03-03T09:15:26;101119.03;;;28.60;53.11
72370;BME280;60343;-32.030;115.880;2023-03-03T09:18:13;101121.81;;;28.55;52.78
72370;BME280;60343;-32.030;115.880;2023-03-03T09:20:49;101119.34;;;28.48;53.07
72370;BME280;60343;-32.030;115.880;2023-03-03T09:23:30;101127.38;;;28.45;53.16
72370;BME280;60343;-32.030;115.880;2023-03-03T09:26:23;101119.13;;;28.40;53.16
72370;BME280;60343;-32.030;115.880;2023-03-03T09:29:14;101124.34;;;28.46;52.46
72370;BME280;60343;-32.030;115.880;2023-03-03T09:31:56;101132.34;;;28.38;53.51
72370;BME280;60343;-32.030;115.880;2023-03-03T09:34:39;101121.38;;;28.28;53.48
72370;BME280;60343;-32.030;115.880;2023-03-03T09:37:21;101128.56;;;28.24;53.84
72370;BME280;60343;-32.030;115.880;2023-03-03T09:39:56;101133.03;;;28.14;54.32
72370;BME280;60343;-32.030;115.880;2023-03-03T09:42:44;101131.38;;;28.03;54.80
72370;BME280;60343;-32.030;115.880;2023-03-03T09:45:40;101141.59;;;27.93;54.65
72370;BME280;60343;-32.030;115.880;2023-03-03T09:48:44;101143.84;;;27.81;55.34
72370;BME280;60343;-32.030;115.880;2023-03-03T09:54:41;101136.44;;;27.71;55.76
72370;BME280;60343;-32.030;115.880;2023-03-03T09:57:17;101149.38;;;27.55;56.43
72370;BME280;60343;-32.030;115.880;2023-03-03T10:00:11;101135.88;;;27.44;55.84
72370;BME280;60343;-32.030;115.880;2023-03-03T10:03:09;101143.56;;;27.37;56.49
72370;BME280;60343;-32.030;115.880;2023-03-03T10:05:58;101146.88;;;27.18;57.21
72370;BME280;60343;-32.030;115.880;2023-03-03T10:08:48;101149.06;;;27.11;57.87
72370;BME280;60343;-32.030;115.880;2023-03-03T10:11:32;101154.25;;;26.87;58.93
72370;BME280;60343;-32.030;115.880;2023-03-03T10:14:32;101148.44;;;26.79;58.92
72370;BME280;60343;-32.030;115.880;2023-03-03T10:17:28;101156.63;;;26.59;59.80
72370;BME280;60343;-32.030;115.880;2023-03-03T10:20:16;101162.91;;;26.44;60.13
72370;BME280;60343;-32.030;115.880;2023-03-03T10:23:09;101157.91;;;26.36;60.13
72370;BME280;60343;-32.030;115.880;2023-03-03T10:25:55;101157.25;;;26.14;60.82
72370;BME280;60343;-32.030;115.880;2023-03-03T10:28:58;101173.84;;;25.92;61.77
72370;BME280;60343;-32.030;115.880;2023-03-03T10:31:47;101172.97;;;25.81;62.62
72370;BME280;60343;-32.030;115.880;2023-03-03T10:34:43;101172.13;;;25.81;62.83
72370;BME280;60343;-32.030;115.880;2023-03-03T10:37:26;101174.28;;;25.74;62.93
72370;BME280;60343;-32.030;115.880;2023-03-03T10:40:15;101170.34;;;25.59;63.31
72370;BME280;60343;-32.030;115.880;2023-03-03T10:43:18;101173.00;;;25.49;63.83
72370;BME280;60343;-32.030;115.880;2023-03-03T10:46:15;101184.38;;;25.36;64.46
72370;BME280;60343;-32.030;115.880;2023-03-03T10:49:08;101180.25;;;25.34;64.85
72370;BME280;60343;-32.030;115.880;2023-03-03T10:51:54;101177.59;;;25.12;65.40
72370;BME280;60343;-32.030;115.880;2023-03-03T10:54:45;101182.72;;;25.03;65.30
72370;BME280;60343;-32.030;115.880;2023-03-03T10:57:31;101189.56;;;25.06;64.38
72370;BME280;60343;-32.030;115.880;2023-03-03T11:00:22;101191.53;;;25.10;64.40
72370;BME280;60343;-32.030;115.880;2023-03-03T11:03:24;101192.59;;;25.04;64.59
72370;BME280;60343;-32.030;115.880;2023-03-03T11:06:08;101196.59;;;24.97;64.62
72370;BME280;60343;-32.030;115.880;2023-03-03T11:08:49;101201.94;;;24.87;64.39
72370;BME280;60343;-32.030;115.880;2023-03-03T11:11:34;101203.50;;;24.77;64.06
72370;BME280;60343;-32.030;115.880;2023-03-03T11:14:23;101221.53;;;24.73;64.20
72370;BME280;60343;-32.030;115.880;2023-03-03T11:17:07;101219.28;;;24.70;64.34
72370;BME280;60343;-32.030;115.880;2023-03-03T11:19:54;101221.34;;;24.58;64.51
72370;BME280;60343;-32.030;115.880;2023-03-03T11:22:41;101233.56;;;24.51;64.43
72370;BME280;60343;-32.030;115.880;2023-03-03T11:25:27;101245.25;;;24.46;64.46
72370;BME280;60343;-32.030;115.880;2023-03-03T11:28:14;101248.25;;;24.45;64.76
72370;BME280;60343;-32.030;115.880;2023-03-03T11:31:15;101254.34;;;24.30;65.34
72370;BME280;60343;-32.030;115.880;2023-03-03T11:33:59;101256.00;;;24.31;65.89
72370;BME280;60343;-32.030;115.880;2023-03-03T11:36:40;101255.44;;;24.29;65.80
72370;BME280;60343;-32.030;115.880;2023-03-03T11:39:19;101262.47;;;24.25;66.47
72370;BME280;60343;-32.030;115.880;2023-03-03T11:42:03;101267.38;;;24.23;66.68
72370;BME280;60343;-32.030;115.880;2023-03-03T11:44:46;101264.56;;;24.18;66.96
72370;BME280;60343;-32.030;115.880;2023-03-03T11:47:31;101277.75;;;24.04;67.41
72370;BME280;60343;-32.030;115.880;2023-03-03T11:50:13;101282.88;;;24.01;67.56
72370;BME280;60343;-32.030;115.880;2023-03-03T11:52:53;101280.13;;;24.01;68.26
72370;BME280;60343;-32.030;115.880;2023-03-03T11:55:32;101285.13;;;23.87;68.20
72370;BME280;60343;-32.030;115.880;2023-03-03T11:58:15;101286.53;;;23.73;68.84
72370;BME280;60343;-32.030;115.880;2023-03-03T12:00:58;101290.50;;;23.82;69.34
72370;BME280;60343;-32.030;115.880;2023-03-03T12:03:40;101293.00;;;23.83;69.24
72370;BME280;60343;-32.030;115.880;2023-03-03T12:06:24;101292.09;;;23.78;69.66
72370;BME280;60343;-32.030;115.880;2023-03-03T12:09:12;101295.22;;;23.70;70.34
72370;BME280;60343;-32.030;115.880;2023-03-03T12:11:52;101299.84;;;23.69;70.53
72370;BME280;60343;-32.030;115.880;2023-03-03T12:14:50;101300.94;;;23.68;71.00
72370;BME280;60343;-32.030;115.880;2023-03-03T12:17:46;101313.84;;;23.56;71.61
72370;BME280;60343;-32.030;115.880;2023-03-03T12:20:33;101312.69;;;23.52;71.85
72370;BME280;60343;-32.030;115.880;2023-03-03T12:23:22;101310.19;;;23.50;72.08
72370;BME280;60343;-32.030;115.880;2023-03-03T12:26:06;101317.31;;;23.51;72.47
72370;BME280;60343;-32.030;115.880;2023-03-03T12:28:50;101310.78;;;23.52;72.39
72370;BME280;60343;-32.030;115.880;2023-03-03T12:31:36;101319.72;;;23.48;72.23
72370;BME280;60343;-32.030;115.880;2023-03-03T12:34:19;101322.38;;;23.31;73.06
72370;BME280;60343;-32.030;115.880;2023-03-03T12:40:01;101331.78;;;23.24;73.36
72370;BME280;60343;-32.030;115.880;2023-03-03T12:42:47;101336.44;;;23.12;73.98
72370;BME280;60343;-32.030;115.880;2023-03-03T12:45:35;101335.28;;;23.36;73.78
72370;BME280;60343;-32.030;115.880;2023-03-03T12:48:16;101333.94;;;23.22;73.93
72370;BME280;60343;-32.030;115.880;2023-03-03T12:51:00;101326.91;;;23.26;74.20
72370;BME280;60343;-32.030;115.880;2023-03-03T12:53:53;101333.00;;;23.16;74.26
72370;BME280;60343;-32.030;115.880;2023-03-03T12:56:37;101329.44;;;23.16;74.68
72370;BME280;60343;-32.030;115.880;2023-03-03T12:59:19;101323.13;;;23.15;74.99
72370;BME280;60343;-32.030;115.880;2023-03-03T13:02:07;101332.28;;;23.09;74.83
72370;BME280;60343;-32.030;115.880;2023-03-03T13:04:52;101336.78;;;23.15;75.01
72370;BME280;60343;-32.030;115.880;2023-03-03T13:07:34;101328.66;;;23.03;74.83
72370;BME280;60343;-32.030;115.880;2023-03-03T13:10:25;101338.00;;;23.07;74.94
72370;BME280;60343;-32.030;115.880;2023-03-03T13:13:05;101338.38;;;22.99;75.01
72370;BME280;60343;-32.030;115.880;2023-03-03T13:15:45;101343.38;;;23.02;74.79
72370;BME280;60343;-32.030;115.880;2023-03-03T13:18:30;101341.59;;;22.96;75.69
72370;BME280;60343;-32.030;115.880;2023-03-03T13:21:07;101337.81;;;22.97;75.63
72370;BME280;60343;-32.030;115.880;2023-03-03T13:23:49;101336.03;;;22.91;76.08
72370;BME280;60343;-32.030;115.880;2023-03-03T13:26:34;101335.78;;;22.93;75.61
72370;BME280;60343;-32.030;115.880;2023-03-03T13:29:14;101328.34;;;22.88;75.69
72370;BME280;60343;-32.030;115.880;2023-03-03T13:31:53;101333.56;;;22.78;76.13
72370;BME280;60343;-32.030;115.880;2023-03-03T13:34:39;101333.09;;;22.81;76.24